sensor_id;sensor_type;location;lat;lon;timestamp;P1;durP1;ratioP1;P2;durP2;ratioP2
6941;SDS011;3510;43.200;27.920;2022-11-20T00:01:26;20.90;;;7.13;;
6941;SDS011;3510;43.200;27.920;2022-11-20T00:03:54;18.35;;;6.70;;
6941;SDS011;3510;43.200;27.920;2022-11-20T00:06:23;21.65;;;5.50;;
6941;SDS011;3510;43.200;27.920;2022-11-20T00:08:51;13.63;;;5.97;;
6941;SDS011;3510;43.200;27.920;2022-11-20T00:11:21;17.98;;;6.43;;
6941;SDS011;3510;43.200;27.920;2022-11-20T00:13:50;23.95;;;7.97;;
6941;SDS011;3510;43.200;27.920;2022-11-20T00:16:20;24.77;;;6.68;;
6941;SDS011;3510;43.200;27.920;2022-11-20T00:18:49;16.83;;;6.28;;
6941;SDS011;3510;43.200;27.920;2022-11-20T00:21:17;16.58;;;5.45;;
6941;SDS011;3510;43.200;27.920;2022-11-20T00:23:45;23.23;;;6.75;;
6941;SDS011;3510;43.200;27.920;2022-11-20T00:26:12;23.67;;;7.10;;
6941;SDS011;3510;43.200;27.920;2022-11-20T00:28:40;12.95;;;6.78;;
6941;SDS011;3510;43.200;27.920;2022-11-20T00:31:08;15.57;;;5.55;;
6941;SDS011;3510;43.200;27.920;2022-11-20T00:33:38;25.25;;;6.63;;
6941;SDS011;3510;43.200;27.920;2022-11-20T00:36:06;15.27;;;6.47;;
6941;SDS011;3510;43.200;27.920;2022-11-20T00:38:34;17.63;;;5.97;;
6941;SDS011;3510;43.200;27.920;2022-11-20T00:41:02;19.13;;;5.57;;
6941;SDS011;3510;43.200;27.920;2022-11-20T00:43:31;15.80;;;4.72;;
6941;SDS011;3510;43.200;27.920;2022-11-20T00:45:58;9.07;;;4.50;;
6941;SDS011;3510;43.200;27.920;2022-11-20T00:48:25;15.20;;;4.88;;
6941;SDS011;3510;43.200;27.920;2022-11-20T00:50:54;18.77;;;5.40;;
6941;SDS011;3510;43.200;27.920;2022-11-20T00:53:22;15.60;;;6.00;;
6941;SDS011;3510;43.200;27.920;2022-11-20T00:55:52;13.02;;;6.10;;
6941;SDS011;3510;43.200;27.920;2022-11-20T00:58:20;17.85;;;5.68;;
6941;SDS011;3510;43.200;27.920;2022-11-20T01:00:48;14.10;;;5.57;;
6941;SDS011;3510;43.200;27.920;2022-11-20T01:03:15;16.40;;;7.03;;
6941;SDS011;3510;43.200;27.920;2022-11-20T01:05:43;9.57;;;5.05;;
6941;SDS011;3510;43.200;27.920;2022-11-20T01:08:11;13.25;;;5.05;;
6941;SDS011;3510;43.200;27.920;2022-11-20T01:10:38;17.98;;;6.50;;
6941;SDS011;3510;43.200;27.920;2022-11-20T01:13:05;15.55;;;4.55;;
6941;SDS011;3510;43.200;27.920;2022-11-20T01:15:49;21.23;;;4.30;;
6941;SDS011;3510;43.200;27.920;2022-11-20T01:18:16;14.35;;;5.45;;
6941;SDS011;3510;43.200;27.920;2022-11-20T01:20:43;15.07;;;5.45;;
6941;SDS011;3510;43.200;27.920;2022-11-20T01:23:11;11.38;;;5.40;;
6941;SDS011;3510;43.200;27.920;2022-11-20T01:25:38;8.65;;;4.55;;
6941;SDS011;3510;43.200;27.920;2022-11-20T01:28:06;6.93;;;3.90;;
6941;SDS011;3510;43.200;27.920;2022-11-20T01:30:32;11.00;;;4.35;;
6941;SDS011;3510;43.200;27.920;2022-11-20T01:33:00;15.43;;;5.85;;
6941;SDS011;3510;43.200;27.920;2022-11-20T01:35:26;9.55;;;5.55;;
6941;SDS011;3510;43.200;27.920;2022-11-20T01:37:53;12.32;;;4.32;;
6941;SDS011;3510;43.200;27.920;2022-11-20T01:40:22;12.68;;;4.78;;
6941;SDS011;3510;43.200;27.920;2022-11-20T01:42:52;11.93;;;4.50;;
6941;SDS011;3510;43.200;27.920;2022-11-20T01:48:41;14.90;;;4.70;;
6941;SDS011;3510;43.200;27.920;2022-11-20T01:51:13;11.93;;;5.10;;
6941;SDS011;3510;43.200;27.920;2022-11-20T01:53:45;12.95;;;4.30;;
6941;SDS011;3510;43.200;27.920;2022-11-20T01:56:14;9.98;;;3.97;;
6941;SDS011;3510;43.200;27.920;2022-11-20T01:58:43;10.95;;;3.97;;
6941;SDS011;3510;43.200;27.920;2022-11-20T02:01:13;6.35;;;3.60;;
6941;SDS011;3510;43.200;27.920;2022-11-20T02:03:41;10.55;;;3.83;;
6941;SDS011;3510;43.200;27.920;2022-11-20T02:06:11;13.52;;;4.47;;
6941;SDS011;3510;43.200;27.920;2022-11-20T02:08:43;10.98;;;4.05;;
6941;SDS011;3510;43.200;27.920;2022-11-20T02:11:10;8.68;;;3.45;;
6941;SDS011;3510;43.200;27.920;2022-11-20T02:13:39;7.85;;;4.15;;
6941;SDS011;3510;43.200;27.920;2022-11-20T02:16:09;11.38;;;4.30;;
6941;SDS011;3510;43.200;27.920;2022-11-20T02:18:38;12.02;;;3.83;;
6941;SDS011;3510;43.200;27.920;2022-11-20T02:21:06;12.65;;;4.85;;
6941;SDS011;3510;43.200;27.920;2022-11-20T02:23:38;8.57;;;4.20;;
6941;SDS011;3510;43.200;27.920;2022-11-20T02:26:11;13.50;;;4.10;;
6941;SDS011;3510;43.200;27.920;2022-11-20T02:28:41;10.85;;;4.38;;
6941;SDS011;3510;43.200;27.920;2022-11-20T02:31:08;11.00;;;3.72;;
6941;SDS011;3510;43.200;27.920;2022-11-20T02:33:35;13.00;;;4.35;;
6941;SDS011;3510;43.200;27.920;2022-11-20T02:36:02;12.63;;;3.95;;
6941;SDS011;3510;43.200;27.920;2022-11-20T02:38:30;14.23;;;4.95;;
6941;SDS011;3510;43.200;27.920;2022-11-20T02:40:57;10.88;;;3.55;;
6941;SDS011;3510;43.200;27.920;2022-11-20T02:43:26;6.60;;;3.95;;
6941;SDS011;3510;43.200;27.920;2022-11-20T02:45:53;12.40;;;4.20;;
6941;SDS011;3510;43.200;27.920;2022-11-20T02:48:20;10.55;;;4.13;;
6941;SDS011;3510;43.200;27.920;2022-11-20T02:50:47;6.90;;;4.20;;
6941;SDS011;3510;43.200;27.920;2022-11-20T02:53:14;8.45;;;3.95;;
6941;SDS011;3510;43.200;27.920;2022-11-20T02:55:41;13.32;;;4.35;;
6941;SDS011;3510;43.200;27.920;2022-11-20T02:58:08;8.00;;;3.65;;
6941;SDS011;3510;43.200;27.920;2022-11-20T03:00:36;16.08;;;3.65;;
6941;SDS011;3510;43.200;27.920;2022-11-20T03:03:03;8.98;;;4.10;;
6941;SDS011;3510;43.200;27.920;2022-11-20T03:05:30;13.85;;;4.10;;
6941;SDS011;3510;43.200;27.920;2022-11-20T03:07:57;12.20;;;3.60;;
6941;SDS011;3510;43.200;27.920;2022-11-20T03:10:24;8.02;;;3.47;;
6941;SDS011;3510;43.200;27.920;2022-11-20T03:12:52;5.80;;;3.58;;
6941;SDS011;3510;43.200;27.920;2022-11-20T03:15:20;9.70;;;3.65;;
6941;SDS011;3510;43.200;27.920;2022-11-20T03:17:49;10.75;;;3.80;;
6941;SDS011;3510;43.200;27.920;2022-11-20T03:20:19;7.82;;;3.72;;
6941;SDS011;3510;43.200;27.920;2022-11-20T03:22:46;8.88;;;3.35;;
6941;SDS011;3510;43.200;27.920;2022-11-20T03:25:13;7.45;;;3.20;;
6941;SDS011;3510;43.200;27.920;2022-11-20T03:27:40;8.38;;;4.75;;
6941;SDS011;3510;43.200;27.920;2022-11-20T03:30:13;7.43;;;3.53;;
6941;SDS011;3510;43.200;27.920;2022-11-20T03:32:40;11.45;;;3.92;;
6941;SDS011;3510;43.200;27.920;2022-11-20T03:35:09;22.10;;;4.80;;
6941;SDS011;3510;43.200;27.920;2022-11-20T03:37:35;23.33;;;5.72;;
6941;SDS011;3510;43.200;27.920;2022-11-20T03:40:03;27.10;;;5.38;;
6941;SDS011;3510;43.200;27.920;2022-11-20T03:42:31;22.45;;;6.30;;
6941;SDS011;3510;43.200;27.920;2022-11-20T03:45:13;27.30;;;5.70;;
6941;SDS011;3510;43.200;27.920;2022-11-20T03:47:41;14.75;;;5.07;;
6941;SDS011;3510;43.200;27.920;2022-11-20T03:50:11;17.98;;;4.50;;
6941;SDS011;3510;43.200;27.920;2022-11-20T03:52:39;13.90;;;4.68;;
6941;SDS011;3510;43.200;27.920;2022-11-20T03:55:07;23.35;;;5.00;;
6941;SDS011;3510;43.200;27.920;2022-11-20T03:57:34;13.60;;;4.28;;
6941;SDS011;3510;43.200;27.920;2022-11-20T04:00:02;24.13;;;4.93;;
6941;SDS011;3510;43.200;27.920;2022-11-20T04:02:30;20.60;;;5.05;;
6941;SDS011;3510;43.200;27.920;2022-11-20T04:04:57;13.40;;;3.92;;
6941;SDS011;3510;43.200;27.920;2022-11-20T04:07:25;15.80;;;5.00;;
6941;SDS011;3510;43.200;27.920;2022-11-20T04:09:52;13.13;;;4.88;;
6941;SDS011;3510;43.200;27.920;2022-11-20T04:12:19;8.63;;;3.88;;
6941;SDS011;3510;43.200;27.920;2022-11-20T04:14:46;15.20;;;4.05;;
6941;SDS011;3510;43.200;27.920;2022-11-20T04:17:13;9.15;;;3.83;;
6941;SDS011;3510;43.200;27.920;2022-11-20T04:19:40;12.85;;;4.78;;
6941;SDS011;3510;43.200;27.920;2022-11-20T04:22:07;11.45;;;3.63;;
6941;SDS011;3510;43.200;27.920;2022-11-20T04:24:35;10.32;;;3.80;;
6941;SDS011;3510;43.200;27.920;2022-11-20T04:27:02;9.10;;;3.67;;
6941;SDS011;3510;43.200;27.920;2022-11-20T04:29:29;7.55;;;2.90;;
6941;SDS011;3510;43.200;27.920;2022-11-20T04:31:56;9.75;;;4.20;;
6941;SDS011;3510;43.200;27.920;2022-11-20T04:34:23;4.85;;;3.08;;
6941;SDS011;3510;43.200;27.920;2022-11-20T04:36:50;8.35;;;3.15;;
6941;SDS011;3510;43.200;27.920;2022-11-20T04:39:17;8.25;;;3.17;;
6941;SDS011;3510;43.200;27.920;2022-11-20T04:41:45;6.22;;;2.83;;
6941;SDS011;3510;43.200;27.920;2022-11-20T04:44:12;6.95;;;2.88;;
6941;SDS011;3510;43.200;27.920;2022-11-20T04:46:39;7.22;;;2.65;;
6941;SDS011;3510;43.200;27.920;2022-11-20T04:49:08;8.60;;;2.33;;
6941;SDS011;3510;43.200;27.920;2022-11-20T04:51:35;7.55;;;2.75;;
6941;SDS011;3510;43.200;27.920;2022-11-20T04:54:02;7.80;;;2.78;;
6941;SDS011;3510;43.200;27.920;2022-11-20T04:56:29;9.77;;;3.28;;
6941;SDS011;3510;43.200;27.920;2022-11-20T04:59:01;10.60;;;3.60;;
6941;SDS011;3510;43.200;27.920;2022-11-20T05:01:28;10.07;;;3.17;;
6941;SDS011;3510;43.200;27.920;2022-11-20T05:03:55;6.38;;;2.53;;
6941;SDS011;3510;43.200;27.920;2022-11-20T05:06:22;7.47;;;3.00;;
6941;SDS011;3510;43.200;27.920;2022-11-20T05:08:49;10.02;;;2.85;;
6941;SDS011;3510;43.200;27.920;2022-11-20T05:11:17;6.22;;;2.88;;
6941;SDS011;3510;43.200;27.920;2022-11-20T05:13:45;10.40;;;3.05;;
6941;SDS011;3510;43.200;27.920;2022-11-20T05:16:15;14.45;;;3.10;;
6941;SDS011;3510;43.200;27.920;2022-11-20T05:18:43;10.90;;;2.75;;
6941;SDS011;3510;43.200;27.920;2022-11-20T05:21:11;6.65;;;3.08;;
6941;SDS011;3510;43.200;27.920;2022-11-20T05:23:39;13.20;;;3.00;;
6941;SDS011;3510;43.200;27.920;2022-11-20T05:26:07;11.02;;;3.55;;
6941;SDS011;3510;43.200;27.920;2022-11-20T05:28:38;9.48;;;2.80;;
6941;SDS011;3510;43.200;27.920;2022-11-20T05:31:05;14.73;;;3.33;;
6941;SDS011;3510;43.200;27.920;2022-11-20T05:33:35;12.30;;;5.00;;
6941;SDS011;3510;43.200;27.920;2022-11-20T05:36:02;7.65;;;4.22;;
6941;SDS011;3510;43.200;27.920;2022-11-20T05:38:30;7.88;;;3.33;;
6941;SDS011;3510;43.200;27.920;2022-11-20T05:41:02;17.05;;;3.03;;
6941;SDS011;3510;43.200;27.920;2022-11-20T05:43:31;11.52;;;3.20;;
6941;SDS011;3510;43.200;27.920;2022-11-20T05:45:59;8.68;;;2.97;;
6941;SDS011;3510;43.200;27.920;2022-11-20T05:48:26;8.52;;;3.03;;
6941;SDS011;3510;43.200;27.920;2022-11-20T05:50:55;9.38;;;2.78;;
6941;SDS011;3510;43.200;27.920;2022-11-20T05:53:23;6.75;;;2.95;;
6941;SDS011;3510;43.200;27.920;2022-11-20T05:55:56;7.63;;;2.70;;
6941;SDS011;3510;43.200;27.920;2022-11-20T05:58:23;10.40;;;3.33;;
6941;SDS011;3510;43.200;27.920;2022-11-20T06:00:50;7.57;;;2.60;;
6941;SDS011;3510;43.200;27.920;2022-11-20T06:03:18;18.65;;;4.68;;
6941;SDS011;3510;43.200;27.920;2022-11-20T06:05:45;14.05;;;3.90;;
6941;SDS011;3510;43.200;27.920;2022-11-20T06:08:14;8.45;;;3.78;;
6941;SDS011;3510;43.200;27.920;2022-11-20T06:10:41;8.73;;;2.75;;
6941;SDS011;3510;43.200;27.920;2022-11-20T06:13:08;11.73;;;3.08;;
6941;SDS011;3510;43.200;27.920;2022-11-20T06:15:35;14.38;;;3.13;;
6941;SDS011;3510;43.200;27.920;2022-11-20T06:18:02;8.93;;;2.55;;
6941;SDS011;3510;43.200;27.920;2022-11-20T06:20:29;6.75;;;2.75;;
6941;SDS011;3510;43.200;27.920;2022-11-20T06:22:56;16.67;;;3.53;;
6941;SDS011;3510;43.200;27.920;2022-11-20T06:25:25;13.77;;;2.75;;
6941;SDS011;3510;43.200;27.920;2022-11-20T06:27:51;9.63;;;2.85;;
6941;SDS011;3510;43.200;27.920;2022-11-20T06:30:20;12.52;;;3.90;;
6941;SDS011;3510;43.200;27.920;2022-11-20T06:32:47;10.55;;;2.92;;
6941;SDS011;3510;43.200;27.920;2022-11-20T06:35:14;12.65;;;2.80;;
6941;SDS011;3510;43.200;27.920;2022-11-20T06:37:44;14.32;;;3.33;;
6941;SDS011;3510;43.200;27.920;2022-11-20T06:40:11;9.38;;;3.05;;
6941;SDS011;3510;43.200;27.920;2022-11-20T06:42:40;7.63;;;2.78;;
6941;SDS011;3510;43.200;27.920;2022-11-20T06:45:07;9.50;;;4.53;;
6941;SDS011;3510;43.200;27.920;2022-11-20T06:47:37;13.68;;;3.67;;
6941;SDS011;3510;43.200;27.920;2022-11-20T06:50:05;5.68;;;2.88;;
6941;SDS011;3510;43.200;27.920;2022-11-20T06:52:32;15.38;;;3.03;;
6941;SDS011;3510;43.200;27.920;2022-11-20T06:54:59;7.20;;;2.60;;
6941;SDS011;3510;43.200;27.920;2022-11-20T06:57:26;11.95;;;3.33;;
6941;SDS011;3510;43.200;27.920;2022-11-20T06:59:55;7.80;;;2.90;;
6941;SDS011;3510;43.200;27.920;2022-11-20T07:02:22;8.82;;;3.20;;
6941;SDS011;3510;43.200;27.920;2022-11-20T07:04:49;19.48;;;3.78;;
6941;SDS011;3510;43.200;27.920;2022-11-20T07:07:16;14.00;;;4.05;;
6941;SDS011;3510;43.200;27.920;2022-11-20T07:09:43;16.77;;;3.67;;
6941;SDS011;3510;43.200;27.920;2022-11-20T07:12:10;16.08;;;4.07;;
6941;SDS011;3510;43.200;27.920;2022-11-20T07:14:37;14.15;;;4.05;;
6941;SDS011;3510;43.200;27.920;2022-11-20T07:17:06;14.25;;;4.82;;
6941;SDS011;3510;43.200;27.920;2022-11-20T07:19:33;19.63;;;5.95;;
6941;SDS011;3510;43.200;27.920;2022-11-20T07:22:00;19.77;;;4.47;;
6941;SDS011;3510;43.200;27.920;2022-11-20T07:24:27;13.25;;;3.53;;
6941;SDS011;3510;43.200;27.920;2022-11-20T07:26:54;14.85;;;3.55;;
6941;SDS011;3510;43.200;27.920;2022-11-20T07:29:21;14.63;;;3.90;;
6941;SDS011;3510;43.200;27.920;2022-11-20T07:31:48;21.55;;;4.25;;
6941;SDS011;3510;43.200;27.920;2022-11-20T07:34:16;12.68;;;3.33;;
6941;SDS011;3510;43.200;27.920;2022-11-20T07:36:43;13.40;;;4.20;;
6941;SDS011;3510;43.200;27.920;2022-11-20T07:39:10;14.23;;;4.72;;
6941;SDS011;3510;43.200;27.920;2022-11-20T07:41:37;14.90;;;3.20;;
6941;SDS011;3510;43.200;27.920;2022-11-20T07:44:04;15.60;;;4.53;;
6941;SDS011;3510;43.200;27.920;2022-11-20T07:46:31;19.27;;;4.57;;
6941;SDS011;3510;43.200;27.920;2022-11-20T07:48:58;21.25;;;4.93;;
6941;SDS011;3510;43.200;27.920;2022-11-20T07:51:26;10.43;;;3.10;;
6941;SDS011;3510;43.200;27.920;2022-11-20T07:53:54;20.48;;;6.05;;
6941;SDS011;3510;43.200;27.920;2022-11-20T07:56:21;19.90;;;5.05;;
6941;SDS011;3510;43.200;27.920;2022-11-20T07:58:48;15.82;;;3.65;;
6941;SDS011;3510;43.200;27.920;2022-11-20T08:01:15;8.68;;;3.35;;
6941;SDS011;3510;43.200;27.920;2022-11-20T08:03:42;16.65;;;3.50;;
6941;SDS011;3510;43.200;27.920;2022-11-20T08:06:09;15.63;;;3.75;;
6941;SDS011;3510;43.200;27.920;2022-11-20T08:08:37;13.73;;;3.97;;
6941;SDS011;3510;43.200;27.920;2022-11-20T08:11:05;11.75;;;3.25;;
6941;SDS011;3510;43.200;27.920;2022-11-20T08:13:50;14.20;;;3.55;;
6941;SDS011;3510;43.200;27.920;2022-11-20T08:16:34;10.77;;;3.97;;
6941;SDS011;3510;43.200;27.920;2022-11-20T08:19:01;12.00;;;3.35;;
6941;SDS011;3510;43.200;27.920;2022-11-20T08:21:29;14.63;;;4.68;;
6941;SDS011;3510;43.200;27.920;2022-11-20T08:23:58;15.75;;;4.53;;
6941;SDS011;3510;43.200;27.920;2022-11-20T08:26:25;18.42;;;4.10;;
6941;SDS011;3510;43.200;27.920;2022-11-20T08:28:53;15.75;;;5.47;;
6941;SDS011;3510;43.200;27.920;2022-11-20T08:31:20;13.65;;;3.72;;
6941;SDS011;3510;43.200;27.920;2022-11-20T08:33:48;14.80;;;4.30;;
6941;SDS011;3510;43.200;27.920;2022-11-20T08:36:15;19.47;;;3.17;;
6941;SDS011;3510;43.200;27.920;2022-11-20T08:38:46;16.30;;;4.20;;
6941;SDS011;3510;43.200;27.920;2022-11-20T08:41:16;22.50;;;5.27;;
6941;SDS011;3510;43.200;27.920;2022-11-20T08:43:55;27.23;;;5.53;;
6941;SDS011;3510;43.200;27.920;2022-11-20T08:46:24;19.85;;;3.92;;
6941;SDS011;3510;43.200;27.920;2022-11-20T08:48:52;22.00;;;4.82;;
6941;SDS011;3510;43.200;27.920;2022-11-20T08:51:19;29.33;;;5.50;;
6941;SDS011;3510;43.200;27.920;2022-11-20T08:53:47;21.85;;;4.60;;
6941;SDS011;3510;43.200;27.920;2022-11-20T08:56:16;30.65;;;7.00;;
6941;SDS011;3510;43.200;27.920;2022-11-20T08:58:45;21.52;;;4.70;;
6941;SDS011;3510;43.200;27.920;2022-11-20T09:01:12;14.18;;;5.05;;
6941;SDS011;3510;43.200;27.920;2022-11-20T09:03:39;21.05;;;4.00;;
6941;SDS011;3510;43.200;27.920;2022-11-20T09:06:07;13.95;;;4.07;;
6941;SDS011;3510;43.200;27.920;2022-11-20T09:08:34;25.95;;;6.10;;
6941;SDS011;3510;43.200;27.920;2022-11-20T09:11:02;13.90;;;4.43;;
6941;SDS011;3510;43.200;27.920;2022-11-20T09:13:31;18.52;;;3.33;;
6941;SDS011;3510;43.200;27.920;2022-11-20T09:16:02;19.27;;;4.35;;
6941;SDS011;3510;43.200;27.920;2022-11-20T09:18:31;27.83;;;5.75;;
6941;SDS011;3510;43.200;27.920;2022-11-20T09:20:59;20.23;;;4.63;;
6941;SDS011;3510;43.200;27.920;2022-11-20T09:23:26;29.35;;;4.97;;
6941;SDS011;3510;43.200;27.920;2022-11-20T09:25:57;18.60;;;4.78;;
6941;SDS011;3510;43.200;27.920;2022-11-20T09:28:24;16.80;;;4.75;;
6941;SDS011;3510;43.200;27.920;2022-11-20T09:30:53;15.63;;;4.70;;
6941;SDS011;3510;43.200;27.920;2022-11-20T09:33:20;19.88;;;4.63;;
6941;SDS011;3510;43.200;27.920;2022-11-20T09:35:47;20.23;;;4.82;;
6941;SDS011;3510;43.200;27.920;2022-11-20T09:38:14;19.60;;;4.88;;
6941;SDS011;3510;43.200;27.920;2022-11-20T09:40:44;21.27;;;3.88;;
6941;SDS011;3510;43.200;27.920;2022-11-20T09:43:17;24.95;;;4.07;;
6941;SDS011;3510;43.200;27.920;2022-11-20T09:45:50;15.48;;;4.15;;
6941;SDS011;3510;43.200;27.920;2022-11-20T09:48:29;20.83;;;6.15;;
6941;SDS011;3510;43.200;27.920;2022-11-20T09:51:05;24.73;;;4.60;;
6941;SDS011;3510;43.200;27.920;2022-11-20T09:53:46;18.38;;;3.70;;
6941;SDS011;3510;43.200;27.920;2022-11-20T09:56:22;12.32;;;4.55;;
6941;SDS011;3510;43.200;27.920;2022-11-20T09:58:50;11.55;;;3.50;;
6941;SDS011;3510;43.200;27.920;2022-11-20T10:01:23;9.70;;;3.10;;
6941;SDS011;3510;43.200;27.920;2022-11-20T10:03:54;13.60;;;3.17;;
6941;SDS011;3510;43.200;27.920;2022-11-20T10:06:28;11.30;;;3.45;;
6941;SDS011;3510;43.200;27.920;2022-11-20T10:09:02;8.55;;;3.15;;
6941;SDS011;3510;43.200;27.920;2022-11-20T10:11:42;9.52;;;3.45;;
6941;SDS011;3510;43.200;27.920;2022-11-20T10:14:21;13.50;;;3.38;;
6941;SDS011;3510;43.200;27.920;2022-11-20T10:17:01;12.88;;;3.33;;
6941;SDS011;3510;43.200;27.920;2022-11-20T10:19:46;6.80;;;2.90;;
6941;SDS011;3510;43.200;27.920;2022-11-20T10:22:31;13.05;;;3.72;;
6941;SDS011;3510;43.200;27.920;2022-11-20T10:25:13;10.57;;;3.20;;
6941;SDS011;3510;43.200;27.920;2022-11-20T10:28:00;10.57;;;3.15;;
6941;SDS011;3510;43.200;27.920;2022-11-20T10:30:47;11.32;;;3.40;;
6941;SDS011;3510;43.200;27.920;2022-11-20T10:33:25;11.93;;;3.90;;
6941;SDS011;3510;43.200;27.920;2022-11-20T10:36:00;10.45;;;3.60;;
6941;SDS011;3510;43.200;27.920;2022-11-20T10:38:35;15.50;;;3.45;;
6941;SDS011;3510;43.200;27.920;2022-11-20T10:41:07;11.77;;;4.10;;
6941;SDS011;3510;43.200;27.920;2022-11-20T10:43:52;11.82;;;4.10;;
6941;SDS011;3510;43.200;27.920;2022-11-20T10:46:23;10.98;;;4.03;;
6941;SDS011;3510;43.200;27.920;2022-11-20T10:48:52;18.30;;;5.18;;
6941;SDS011;3510;43.200;27.920;2022-11-20T10:51:23;15.43;;;5.00;;
6941;SDS011;3510;43.200;27.920;2022-11-20T10:54:06;13.65;;;4.40;;
6941;SDS011;3510;43.200;27.920;2022-11-20T10:56:45;10.57;;;3.15;;
6941;SDS011;3510;43.200;27.920;2022-11-20T11:02:16;15.88;;;3.38;;
6941;SDS011;3510;43.200;27.920;2022-11-20T11:04:47;12.35;;;3.83;;
6941;SDS011;3510;43.200;27.920;2022-11-20T11:07:16;12.52;;;3.40;;
6941;SDS011;3510;43.200;27.920;2022-11-20T11:09:47;14.95;;;5.63;;
6941;SDS011;3510;43.200;27.920;2022-11-20T11:12:16;15.75;;;4.68;;
6941;SDS011;3510;43.200;27.920;2022-11-20T11:14:44;8.77;;;4.18;;
6941;SDS011;3510;43.200;27.920;2022-11-20T11:17:20;11.35;;;5.45;;
6941;SDS011;3510;43.200;27.920;2022-11-20T11:20:02;12.43;;;3.50;;
6941;SDS011;3510;43.200;27.920;2022-11-20T11:22:32;17.05;;;4.63;;
6941;SDS011;3510;43.200;27.920;2022-11-20T11:25:00;15.05;;;4.25;;
6941;SDS011;3510;43.200;27.920;2022-11-20T11:27:27;13.60;;;3.38;;
6941;SDS011;3510;43.200;27.920;2022-11-20T11:30:11;17.10;;;4.03;;
6941;SDS011;3510;43.200;27.920;2022-11-20T11:32:40;15.90;;;3.58;;
6941;SDS011;3510;43.200;27.920;2022-11-20T11:35:18;7.70;;;3.40;;
6941;SDS011;3510;43.200;27.920;2022-11-20T11:37:50;16.38;;;3.65;;
6941;SDS011;3510;43.200;27.920;2022-11-20T11:40:19;19.17;;;3.60;;
6941;SDS011;3510;43.200;27.920;2022-11-20T11:42:50;21.92;;;4.70;;
6941;SDS011;3510;43.200;27.920;2022-11-20T11:45:20;24.58;;;5.55;;
6941;SDS011;3510;43.200;27.920;2022-11-20T11:47:47;10.55;;;3.78;;
6941;SDS011;3510;43.200;27.920;2022-11-20T11:50:20;10.18;;;3.60;;
6941;SDS011;3510;43.200;27.920;2022-11-20T11:52:54;12.02;;;4.30;;
6941;SDS011;3510;43.200;27.920;2022-11-20T11:55:36;12.38;;;3.85;;
6941;SDS011;3510;43.200;27.920;2022-11-20T11:58:10;8.43;;;3.50;;
6941;SDS011;3510;43.200;27.920;2022-11-20T12:00:45;16.20;;;4.28;;
6941;SDS011;3510;43.200;27.920;2022-11-20T12:03:21;13.25;;;4.20;;
6941;SDS011;3510;43.200;27.920;2022-11-20T12:05:57;12.70;;;4.38;;
6941;SDS011;3510;43.200;27.920;2022-11-20T12:08:27;11.25;;;4.45;;
6941;SDS011;3510;43.200;27.920;2022-11-20T12:11:00;12.98;;;3.78;;
6941;SDS011;3510;43.200;27.920;2022-11-20T12:13:36;17.40;;;4.07;;
6941;SDS011;3510;43.200;27.920;2022-11-20T12:16:10;21.55;;;4.25;;
6941;SDS011;3510;43.200;27.920;2022-11-20T12:18:40;12.25;;;4.25;;
6941;SDS011;3510;43.200;27.920;2022-11-20T12:21:17;24.60;;;5.35;;
6941;SDS011;3510;43.200;27.920;2022-11-20T12:24:08;14.02;;;3.92;;
6941;SDS011;3510;43.200;27.920;2022-11-20T12:26:55;19.65;;;4.75;;
6941;SDS011;3510;43.200;27.920;2022-11-20T12:29:34;42.38;;;5.80;;
6941;SDS011;3510;43.200;27.920;2022-11-20T12:32:25;20.23;;;4.32;;
6941;SDS011;3510;43.200;27.920;2022-11-20T12:35:03;24.77;;;5.95;;
6941;SDS011;3510;43.200;27.920;2022-11-20T12:37:42;23.50;;;5.95;;
6941;SDS011;3510;43.200;27.920;2022-11-20T12:40:17;32.17;;;6.00;;
6941;SDS011;3510;43.200;27.920;2022-11-20T12:42:57;20.58;;;5.18;;
6941;SDS011;3510;43.200;27.920;2022-11-20T12:45:55;25.75;;;4.63;;
6941;SDS011;3510;43.200;27.920;2022-11-20T12:48:55;19.17;;;5.63;;
6941;SDS011;3510;43.200;27.920;2022-11-20T12:57:39;17.52;;;4.70;;
6941;SDS011;3510;43.200;27.920;2022-11-20T13:00:14;18.23;;;4.68;;
6941;SDS011;3510;43.200;27.920;2022-11-20T13:02:54;26.80;;;6.03;;
6941;SDS011;3510;43.200;27.920;2022-11-20T13:05:47;17.48;;;5.47;;
6941;SDS011;3510;43.200;27.920;2022-11-20T13:08:22;22.25;;;5.13;;
6941;SDS011;3510;43.200;27.920;2022-11-20T13:10:51;21.00;;;5.65;;
6941;SDS011;3510;43.200;27.920;2022-11-20T13:13:29;21.60;;;4.72;;
6941;SDS011;3510;43.200;27.920;2022-11-20T13:16:17;23.73;;;4.78;;
6941;SDS011;3510;43.200;27.920;2022-11-20T13:18:51;16.45;;;5.05;;
6941;SDS011;3510;43.200;27.920;2022-11-20T13:21:19;17.00;;;5.78;;
6941;SDS011;3510;43.200;27.920;2022-11-20T13:23:47;22.42;;;4.85;;
6941;SDS011;3510;43.200;27.920;2022-11-20T13:26:16;33.47;;;6.80;;
6941;SDS011;3510;43.200;27.920;2022-11-20T13:28:47;20.08;;;5.10;;
6941;SDS011;3510;43.200;27.920;2022-11-20T13:31:29;20.98;;;7.00;;
6941;SDS011;3510;43.200;27.920;2022-11-20T13:33:58;31.50;;;7.45;;
6941;SDS011;3510;43.200;27.920;2022-11-20T13:36:28;21.15;;;5.38;;
6941;SDS011;3510;43.200;27.920;2022-11-20T13:38:57;34.45;;;6.47;;
6941;SDS011;3510;43.200;27.920;2022-11-20T13:41:25;29.70;;;7.40;;
6941;SDS011;3510;43.200;27.920;2022-11-20T13:43:58;29.73;;;5.88;;
6941;SDS011;3510;43.200;27.920;2022-11-20T13:46:39;16.45;;;5.78;;
6941;SDS011;3510;43.200;27.920;2022-11-20T13:49:09;17.77;;;6.47;;
6941;SDS011;3510;43.200;27.920;2022-11-20T13:51:43;24.38;;;4.88;;
6941;SDS011;3510;43.200;27.920;2022-11-20T13:54:24;20.10;;;5.05;;
6941;SDS011;3510;43.200;27.920;2022-11-20T13:57:17;27.75;;;6.25;;
6941;SDS011;3510;43.200;27.920;2022-11-20T14:00:09;34.33;;;7.70;;
6941;SDS011;3510;43.200;27.920;2022-11-20T14:02:38;36.72;;;8.50;;
6941;SDS011;3510;43.200;27.920;2022-11-20T14:05:13;43.42;;;7.85;;
6941;SDS011;3510;43.200;27.920;2022-11-20T14:07:45;64.05;;;10.10;;
6941;SDS011;3510;43.200;27.920;2022-11-20T14:10:20;33.42;;;7.00;;
6941;SDS011;3510;43.200;27.920;2022-11-20T14:12:49;43.47;;;8.80;;
6941;SDS011;3510;43.200;27.920;2022-11-20T14:15:25;33.78;;;6.18;;
6941;SDS011;3510;43.200;27.920;2022-11-20T14:17:54;37.65;;;6.80;;
6941;SDS011;3510;43.200;27.920;2022-11-20T14:20:21;44.65;;;8.40;;
6941;SDS011;3510;43.200;27.920;2022-11-20T14:22:52;40.03;;;8.05;;
6941;SDS011;3510;43.200;27.920;2022-11-20T14:25:20;58.38;;;10.77;;
6941;SDS011;3510;43.200;27.920;2022-11-20T14:27:52;44.97;;;9.35;;
6941;SDS011;3510;43.200;27.920;2022-11-20T14:30:21;40.17;;;8.15;;
6941;SDS011;3510;43.200;27.920;2022-11-20T14:32:51;47.08;;;7.88;;
6941;SDS011;3510;43.200;27.920;2022-11-20T14:35:21;27.92;;;6.72;;
6941;SDS011;3510;43.200;27.920;2022-11-20T14:37:51;21.42;;;6.53;;
6941;SDS011;3510;43.200;27.920;2022-11-20T14:40:22;25.23;;;7.72;;
6941;SDS011;3510;43.200;27.920;2022-11-20T14:42:51;22.52;;;6.32;;
6941;SDS011;3510;43.200;27.920;2022-11-20T14:45:19;25.67;;;6.78;;
6941;SDS011;3510;43.200;27.920;2022-11-20T14:47:47;31.20;;;7.10;;
6941;SDS011;3510;43.200;27.920;2022-11-20T14:50:18;27.75;;;5.65;;
6941;SDS011;3510;43.200;27.920;2022-11-20T14:52:51;30.45;;;5.60;;
6941;SDS011;3510;43.200;27.920;2022-11-20T14:55:26;20.20;;;6.80;;
6941;SDS011;3510;43.200;27.920;2022-11-20T14:57:57;33.50;;;7.63;;
6941;SDS011;3510;43.200;27.920;2022-11-20T15:00:25;37.92;;;6.85;;
6941;SDS011;3510;43.200;27.920;2022-11-20T15:02:53;26.40;;;5.50;;
6941;SDS011;3510;43.200;27.920;2022-11-20T15:05:23;26.98;;;7.05;;
6941;SDS011;3510;43.200;27.920;2022-11-20T15:07:51;37.50;;;6.47;;
6941;SDS011;3510;43.200;27.920;2022-11-20T15:10:30;35.67;;;6.95;;
6941;SDS011;3510;43.200;27.920;2022-11-20T15:12:59;30.17;;;7.07;;
6941;SDS011;3510;43.200;27.920;2022-11-20T15:15:29;26.25;;;6.18;;
6941;SDS011;3510;43.200;27.920;2022-11-20T15:17:59;25.35;;;6.35;;
6941;SDS011;3510;43.200;27.920;2022-11-20T15:20:28;37.40;;;8.68;;
6941;SDS011;3510;43.200;27.920;2022-11-20T15:22:58;34.15;;;6.35;;